createdAt,value
2023-05-08T00:04:20.906Z,16.08
2023-05-08T00:09:22.757Z,16.06
2023-05-08T00:14:24.601Z,15.49
2023-05-08T00:19:26.430Z,15.17
2023-05-08T00:24:28.264Z,15.68
2023-05-08T00:29:30.160Z,15.83
2023-05-08T00:34:31.925Z,15.90
2023-05-08T00:39:33.704Z,15.79
2023-05-08T00:44:35.630Z,15.99
2023-05-08T00:49:38.355Z,16.16
2023-05-08T00:54:40.812Z,16.21
2023-05-08T00:59:43.847Z,16.28
2023-05-08T01:04:46.481Z,16.27
2023-05-08T01:09:48.957Z,15.98
2023-05-08T01:15:08.199Z,15.52
2023-05-08T01:20:36.347Z,15.18
2023-05-08T01:25:44.247Z,15.74
2023-05-08T01:30:45.961Z,14.57
2023-05-08T01:35:56.453Z,14.78
2023-05-08T01:41:07.496Z,14.93
2023-05-08T01:46:16.875Z,15.11
2023-05-08T01:51:22.766Z,15.40
2023-05-08T01:56:28.583Z,15.46
2023-05-08T02:01:33.409Z,15.30
2023-05-08T02:06:37.364Z,15.64
2023-05-08T02:11:43.588Z,15.70
2023-05-08T02:16:48.769Z,15.44
2023-05-08T02:21:52.004Z,15.30
2023-05-08T02:26:57.368Z,15.21
2023-05-08T02:32:02.134Z,15.12
2023-05-08T02:37:05.684Z,14.44
2023-05-08T02:42:07.899Z,14.32
2023-05-08T02:47:24.056Z,14.15
2023-05-08T02:52:31.040Z,13.86
2023-05-08T02:57:42.597Z,14.11
2023-05-08T03:02:50.879Z,14.34
2023-05-08T03:07:55.834Z,14.62
2023-05-08T03:12:59.990Z,14.89
2023-05-08T03:18:12.888Z,14.82
2023-05-08T03:23:18.106Z,14.84
2023-05-08T03:28:21.755Z,14.70
2023-05-08T03:33:26.848Z,14.77
2023-05-08T03:38:29.193Z,14.21
2023-05-08T03:43:31.976Z,13.95
2023-05-08T03:48:34.786Z,14.45
2023-05-08T03:53:37.443Z,14.76
2023-05-08T03:59:09.182Z,14.87
2023-05-08T04:04:20.014Z,14.45
2023-05-08T04:09:37.432Z,14.62
2023-05-08T04:14:47.667Z,14.45
2023-05-08T04:19:55.833Z,14.36
2023-05-08T04:25:01.445Z,14.38
2023-05-08T04:30:03.762Z,14.46
2023-05-08T04:35:08.178Z,13.80
2023-05-08T04:40:10.860Z,13.87
2023-05-08T04:45:14.438Z,13.77
2023-05-08T04:50:16.985Z,13.42
2023-05-08T04:55:18.865Z,12.98
2023-05-08T05:00:22.116Z,13.16
2023-05-08T05:05:25.523Z,12.47
2023-05-08T05:10:27.577Z,12.92
2023-05-08T05:15:29.427Z,13.55
2023-05-08T05:20:31.743Z,13.64
2023-05-08T05:25:34.929Z,13.88
2023-05-08T05:30:36.818Z,14.07
2023-05-08T05:35:38.875Z,14.03
2023-05-08T05:40:41.040Z,14.21
2023-05-08T05:45:43.391Z,14.18
2023-05-08T05:50:45.422Z,13.26
2023-05-08T05:55:48.343Z,13.53
2023-05-08T06:00:51.507Z,13.62
2023-05-08T06:05:53.422Z,13.70
2023-05-08T06:10:55.400Z,14.45
2023-05-08T06:15:57.508Z,14.71
2023-05-08T06:21:00.196Z,13.92
2023-05-08T06:26:02.060Z,14.57
2023-05-08T06:31:03.917Z,14.25
2023-05-08T06:36:06.389Z,14.55
2023-05-08T06:41:09.090Z,14.77
2023-05-08T06:46:11.094Z,14.50
2023-05-08T06:51:13.071Z,14.93
2023-05-08T06:56:14.863Z,15.22
2023-05-08T07:01:16.701Z,14.38
2023-05-08T07:06:18.661Z,13.54
2023-05-08T07:11:20.477Z,14.78
2023-05-08T07:16:22.326Z,13.25
2023-05-08T07:21:24.178Z,10.03
2023-05-08T07:26:26.031Z,9.96
2023-05-08T07:31:27.865Z,8.83
2023-05-08T07:36:29.711Z,10.65
2023-05-08T07:41:31.624Z,8.57
2023-05-08T07:46:33.598Z,11.54
2023-05-08T07:51:35.549Z,12.99
2023-05-08T07:56:37.235Z,12.87
2023-05-08T08:01:39.738Z,14.22
2023-05-08T08:06:41.899Z,13.91
2023-05-08T08:11:43.736Z,14.89
2023-05-08T08:16:45.674Z,15.36
2023-05-08T08:21:47.498Z,15.75
2023-05-08T08:26:49.260Z,14.76
2023-05-08T08:31:51.133Z,15.91
2023-05-08T08:36:52.827Z,9.87
2023-05-08T08:41:54.573Z,13.22
2023-05-08T08:46:58.794Z,12.10
2023-05-08T08:52:10.931Z,13.51
2023-05-08T08:57:14.287Z,11.73
2023-05-08T09:02:19.457Z,8.69
2023-05-08T09:07:22.808Z,9.82
2023-05-08T09:12:24.649Z,8.74
2023-05-08T09:17:26.472Z,8.77
2023-05-08T09:22:29.128Z,11.13
2023-05-08T09:27:31.968Z,14.13
2023-05-08T09:32:38.933Z,13.53
2023-05-08T09:37:43.099Z,13.56
2023-05-08T09:42:45.749Z,10.83
2023-05-08T09:47:50.760Z,8.99
2023-05-08T09:52:52.955Z,9.54
2023-05-08T09:57:57.633Z,10.25
2023-05-08T10:03:03.734Z,10.39
2023-05-08T10:08:23.054Z,11.80
2023-05-08T10:13:26.195Z,10.31
2023-05-08T10:18:30.082Z,9.65
2023-05-08T10:23:34.504Z,9.31
2023-05-08T10:28:49.326Z,10.40
2023-05-08T10:33:54.856Z,11.26
2023-05-08T10:38:58.658Z,10.69
2023-05-08T10:44:03.233Z,11.56
2023-05-08T10:49:45.358Z,10.59
2023-05-08T10:55:04.783Z,11.95
2023-05-08T11:00:07.218Z,11.66
2023-05-08T11:05:18.759Z,12.89
2023-05-08T11:10:20.775Z,11.58
2023-05-08T11:15:38.890Z,11.24
2023-05-08T11:20:42.992Z,10.30
2023-05-08T11:25:44.895Z,10.89
2023-05-08T11:30:46.648Z,13.87
2023-05-08T11:35:51.384Z,12.74
2023-05-08T11:40:56.241Z,13.26
2023-05-08T11:46:21.895Z,14.73
2023-05-08T11:51:23.731Z,15.19
2023-05-08T11:56:26.578Z,16.82
2023-05-08T12:01:28.500Z,13.18
2023-05-08T12:06:32.209Z,11.42
2023-05-08T12:11:33.984Z,12.36
2023-05-08T12:16:40.474Z,14.35
2023-05-08T12:21:49.106Z,11.62
2023-05-08T12:26:54.750Z,14.11
2023-05-08T12:31:56.724Z,14.17
2023-05-08T12:37:03.331Z,16.44
2023-05-08T12:42:05.221Z,14.65
2023-05-08T12:47:07.095Z,15.46
2023-05-08T12:52:13.488Z,16.71
2023-05-08T12:57:17.724Z,15.60
2023-05-08T13:02:23.774Z,17.07
2023-05-08T13:07:31.850Z,17.27
2023-05-08T13:12:34.149Z,13.94
2023-05-08T13:17:36.060Z,15.62
2023-05-08T13:22:37.931Z,14.88
2023-05-08T13:27:39.722Z,15.38
2023-05-08T13:32:41.600Z,16.70
2023-05-08T13:37:43.726Z,14.37
2023-05-08T13:42:45.667Z,15.57
2023-05-08T13:47:49.416Z,15.07
2023-05-08T13:52:54.534Z,15.59
2023-05-08T13:57:57.401Z,17.05
2023-05-08T14:02:59.276Z,15.14
2023-05-08T14:08:01.308Z,16.28
2023-05-08T14:13:03.213Z,12.11
2023-05-08T14:18:05.917Z,14.97
2023-05-08T14:23:07.811Z,15.73
2023-05-08T14:28:09.670Z,15.42
2023-05-08T14:33:11.775Z,18.26
2023-05-08T14:38:14.303Z,18.02
2023-05-08T14:43:16.289Z,18.99
2023-05-08T14:48:18.095Z,19.29
2023-05-08T14:53:20.106Z,18.70
2023-05-08T14:58:22.118Z,20.20
2023-05-08T15:03:24.143Z,19.92
2023-05-08T15:08:26.077Z,20.11
2023-05-08T15:13:28.030Z,20.16
2023-05-08T15:18:29.905Z,19.83
2023-05-08T15:23:31.745Z,20.52
2023-05-08T15:28:33.618Z,20.71
2023-05-08T15:33:35.411Z,20.44
2023-05-08T15:38:37.200Z,18.70
2023-05-08T15:43:39.351Z,19.75
2023-05-08T15:48:41.207Z,19.62
2023-05-08T15:53:42.991Z,20.09
2023-05-08T15:58:44.967Z,19.92
2023-05-08T16:03:47.087Z,19.84
2023-05-08T16:08:48.939Z,19.93
2023-05-08T16:13:50.894Z,20.03
2023-05-08T16:18:52.757Z,20.05
2023-05-08T16:23:54.578Z,20.22
2023-05-08T16:28:56.438Z,19.90
2023-05-08T16:33:58.208Z,20.42
2023-05-08T16:39:00.049Z,20.63
2023-05-08T16:44:02.113Z,21.25
2023-05-08T16:49:03.921Z,21.39
2023-05-08T16:54:06.336Z,21.73
2023-05-08T16:59:08.381Z,21.82
2023-05-08T17:04:10.333Z,21.57
2023-05-08T17:09:12.160Z,21.20
2023-05-08T17:14:14.000Z,21.03
2023-05-08T17:19:15.913Z,21.25
2023-05-08T17:24:19.611Z,20.39
2023-05-08T17:29:21.659Z,20.24
2023-05-08T17:34:23.462Z,19.57
2023-05-08T17:39:25.309Z,19.92
2023-05-08T17:44:27.144Z,20.19
2023-05-08T17:49:28.951Z,19.73
2023-05-08T17:54:30.706Z,20.09
2023-05-08T17:59:32.505Z,20.37
2023-05-08T18:04:34.398Z,20.57
2023-05-08T18:09:36.167Z,20.47
2023-05-08T18:14:37.955Z,20.38
2023-05-08T18:19:39.773Z,20.41
2023-05-08T18:24:41.610Z,19.92
2023-05-08T18:29:43.404Z,19.77
2023-05-08T18:34:45.439Z,18.62
2023-05-08T18:39:47.469Z,18.47
2023-05-08T18:44:49.386Z,18.75
2023-05-08T18:49:52.417Z,17.98
2023-05-08T18:54:54.240Z,18.02
2023-05-08T18:59:56.054Z,18.06
2023-05-08T19:04:57.848Z,18.52
2023-05-08T19:09:59.803Z,18.64
2023-05-08T19:15:01.804Z,18.08
2023-05-08T19:20:04.325Z,18.59
2023-05-08T19:25:06.364Z,18.51
2023-05-08T19:30:08.762Z,18.68
2023-05-08T19:35:10.609Z,18.00
2023-05-08T19:40:13.172Z,17.74
2023-05-08T19:45:16.211Z,17.41
2023-05-08T19:50:18.811Z,17.45
2023-05-08T19:55:20.630Z,17.73
2023-05-08T20:00:22.700Z,16.79
2023-05-08T20:05:24.515Z,17.20
2023-05-08T20:10:26.413Z,16.97
2023-05-08T20:15:28.194Z,17.01
2023-05-08T20:20:30.670Z,17.04
2023-05-08T20:25:32.429Z,16.59
2023-05-08T20:30:34.179Z,16.75
2023-05-08T20:35:36.060Z,16.50
2023-05-08T20:40:37.856Z,16.43
2023-05-08T20:45:39.709Z,16.37
2023-05-08T20:50:41.532Z,16.45
2023-05-08T20:55:43.287Z,16.37
2023-05-08T21:00:45.144Z,15.96
2023-05-08T21:05:46.934Z,15.73
2023-05-08T21:10:48.818Z,15.61
2023-05-08T21:15:50.764Z,15.60
2023-05-08T21:20:52.619Z,15.73
2023-05-08T21:25:54.415Z,15.65
2023-05-08T21:30:56.219Z,15.51
2023-05-08T21:35:59.304Z,15.77
2023-05-08T21:41:08.255Z,15.26
2023-05-08T21:46:10.176Z,15.65
2023-05-08T21:51:12.077Z,15.75
2023-05-08T21:56:14.030Z,15.80
2023-05-08T22:01:16.242Z,15.69
2023-05-08T22:06:18.102Z,15.31
2023-05-08T22:11:19.977Z,15.07
2023-05-08T22:16:21.878Z,15.07
2023-05-08T22:21:23.749Z,15.11
2023-05-08T22:26:26.207Z,14.67
2023-05-08T22:31:28.003Z,15.33
2023-05-08T22:36:29.758Z,15.27
2023-05-08T22:41:32.235Z,15.19
2023-05-08T22:46:34.722Z,14.95
2023-05-08T22:51:36.644Z,15.20
2023-05-08T22:56:38.454Z,15.02
2023-05-08T23:01:40.551Z,15.29
2023-05-08T23:06:42.362Z,14.85
2023-05-08T23:11:44.206Z,15.17
2023-05-08T23:16:46.154Z,15.06
2023-05-08T23:21:48.234Z,15.09
2023-05-08T23:26:52.419Z,15.16
2023-05-08T23:31:54.508Z,15.17
2023-05-08T23:36:56.308Z,14.90
2023-05-08T23:41:58.006Z,15.23
2023-05-08T23:46:59.829Z,15.38
2023-05-08T23:52:01.638Z,15.31
2023-05-08T23:57:03.508Z,15.04
